Ettrick, Wisconsin
Current Conditions -  °F | °C
As of 11:53 PM on Sunday 25 Jan 2015 (Local Time) from KLSE Reporting Station
Clear Clear  
Wind Chill: 21°   Ceiling: Unl
Heat Index: 21°   Visibility: 10mi
Dew Point: 14°   Wind: 3mph
Humidity: 74%   Direction: 170°S
Pressure: 30.04"   Gusts: NA
Location:  44.17°N, 91.27°W
Report Text: KLSE 260553Z AUTO 17003KT 10SM CLR M06/M10 A3004 RMK AO2 SLP188 T10611100 11033 21067 400281067 55006
Loading
Personal Weather Stations






























Interactive Weather Map New forecast layout! Learn more

10-Day Weather Forecast

Advertisements
Track Severe Weather on mobile